EST,Max TemperatureF,Mean TemperatureF,Min TemperatureF,Max Dew PointF,MeanDew PointF,Min DewpointF,Max Humidity, Mean Humidity, Min Humidity, Max Sea Level PressureIn, Mean Sea Level PressureIn, Min Sea Level PressureIn, Max VisibilityMiles, Mean VisibilityMiles, Min VisibilityMiles, Max Wind SpeedMPH, Mean Wind SpeedMPH, Max Gust SpeedMPH,PrecipitationIn, CloudCover, Events, WindDirDegrees
2013-11-1,81,74,67,67,66,63,100,79,58,29.98,29.81,29.70,10,8,2,17,8,25,0.36,6,Rain,211
2013-11-2,74,61,48,66,57,44,100,68,35,29.94,29.77,29.72,10,10,6,18,5,24,0.01,3,Rain,274
2013-11-3,66,55,43,45,39,35,89,61,32,30.33,30.15,29.95,10,10,10,16,6,23,0.00,0,,350
2013-11-4,62,50,38,38,34,30,85,59,32,30.51,30.45,30.34,10,10,10,16,8,23,0.00,0,,36
2013-11-5,64,53,41,52,45,35,89,75,60,30.49,30.45,30.40,10,10,2,15,8,17,T,5,Rain,24
2013-11-6,76,62,48,63,55,47,93,72,50,30.38,30.24,30.12,10,9,3,12,4,15,T,5,Rain,64
2013-11-7,75,63,50,64,61,34,100,75,50,30.10,30.01,29.92,10,5,1,16,5,24,0.20,7,Rain,296
2013-11-8,62,48,33,36,31,23,92,58,23,30.33,30.25,30.11,10,10,10,16,6,22,0.00,0,,351
2013-11-9,64,47,30,43,34,28,100,65,29,30.39,30.30,30.22,10,9,6,10,2,13,0.00,0,,237
2013-11-10,73,56,38,43,38,32,93,59,24,30.24,30.18,30.10,10,10,7,10,2,15,0.00,0,,240
2013-11-11,63,49,35,37,32,27,92,59,25,30.35,30.25,30.17,10,10,9,15,3,21,0.00,0,,34
2013-11-12,69,50,31,39,33,27,100,62,24,30.40,30.18,30.04,10,8,2,29,8,40,0.03,5,Rain-Snow,1
2013-11-13,48,36,24,28,21,16,84,55,26,30.53,30.48,30.39,10,10,10,17,7,24,0.00,0,,358
2013-11-14,57,39,21,28,22,16,96,58,19,30.52,30.44,30.36,10,10,8,9,2,14,0.00,0,,228
2013-11-15,68,49,29,54,42,26,96,71,45,30.36,30.28,30.20,10,10,8,10,2,14,0.00,2,,111
2013-11-16,74,64,54,59,56,54,100,75,49,30.26,30.21,30.18,10,5,0,10,3,17,0.00,5,Fog,31
2013-11-17,74,62,50,67,59,50,100,84,68,30.20,30.10,29.95,10,5,0,10,4,15,0.01,6,Fog-Rain,140
2013-11-18,82,70,58,70,60,31,97,67,36,29.94,29.88,29.79,10,9,5,13,9,18,T,5,,268
2013-11-19,62,53,43,31,28,24,58,42,25,30.29,30.11,29.95,10,9,2,17,8,23,0.00,0,,19
2013-11-20,58,48,38,39,34,29,76,60,43,30.40,30.35,30.29,10,10,10,17,9,23,0.00,2,,43
2013-11-21,69,57,45,53,47,39,80,66,52,30.45,30.40,30.35,10,10,10,14,7,18,0.00,4,,30
2013-11-22,73,64,55,63,59,53,93,81,68,30.36,30.23,30.11,10,10,7,16,5,19,T,6,,202
2013-11-23,64,56,48,63,55,23,93,70,46,30.15,30.08,30.03,10,6,1,17,7,21,0.08,7,Rain,299
2013-11-24,48,35,22,21,11,3,60,40,19,30.55,30.40,30.17,10,10,10,24,10,35,0.00,0,,7
2013-11-25,45,32,19,20,9,2,77,48,18,30.61,30.50,30.36,10,9,2,12,4,15,0.00,0,,70
2013-11-26,68,52,36,67,54,18,100,72,44,30.32,29.89,29.59,10,6,1,18,8,27,1.03,7,Rain,129
2013-11-27,67,49,31,66,47,21,100,80,59,30.19,29.64,29.48,10,6,2,24,10,32,0.75,7,Rain,316
2013-11-28,45,35,24,27,21,18,92,65,37,30.51,30.40,30.21,10,10,10,16,4,21,0.00,0,,341
2013-11-29,54,40,26,30,26,23,92,61,29,30.60,30.53,30.48,10,10,8,13,5,23,0.00,0,,38
2013-11-30,53,43,32,38,32,25,76,63,50,30.59,30.50,30.36,10,10,6,16,8,19,0.00,2,,26